Time;durP1;ratioP1;P1;durP2;ratioP2;P2;SDS_P1;SDS_P2;PMS_P1;PMS_P2;Temp;Humidity;BMP_temperature;BMP_pressure;BME280_temperature;BME280_humidity;BME280_pressure;Samples;Min_cycle;Max_cycle;Signal;HPM_P1;HPM_P2
2023/11/18 00:00:23;;;;;;;47.45;21.25;;;2.10;99.90;;;;;;5080112;28;20124;-78
2023/11/18 00:02:50;;;;;;;49.72;22.33;;;2.10;99.90;;;;;;5065530;28;20036;-77
2023/11/18 00:05:15;;;;;;;52.97;21.25;;;2.00;99.90;;;;;;5065366;28;20063;-77
2023/11/18 00:07:41;;;;;;;51.22;20.25;;;2.00;99.90;;;;;;5050622;28;20133;-77
2023/11/18 00:10:08;;;;;;;46.65;19.42;;;2.00;99.90;;;;;;5053207;28;20515;-77
2023/11/18 00:12:36;;;;;;;40.25;17.42;;;2.10;99.90;;;;;;5049727;28;20032;-77
2023/11/18 00:15:03;;;;;;;47.40;18.90;;;2.10;99.90;;;;;;5049008;28;20085;-77
2023/11/18 00:17:32;;;;;;;55.88;20.70;;;2.10;99.90;;;;;;5060440;28;20039;-77
2023/11/18 00:19:57;;;;;;;54.08;21.23;;;2.00;99.90;;;;;;5066931;28;20111;-77
2023/11/18 00:22:23;;;;;;;51.60;20.83;;;1.90;99.90;;;;;;5081190;28;20567;-78
2023/11/18 00:24:49;;;;;;;45.35;18.88;;;1.90;99.90;;;;;;5081491;28;20427;-78
2023/11/18 00:27:14;;;;;;;48.70;20.88;;;2.00;99.90;;;;;;5078590;28;20032;-77
2023/11/18 00:29:43;;;;;;;38.00;15.85;;;2.00;99.90;;;;;;5062055;28;20086;-77
2023/11/18 00:32:09;;;;;;;41.60;16.67;;;2.20;99.90;;;;;;5062556;28;20153;-77
2023/11/18 00:34:34;;;;;;;39.17;17.38;;;2.20;99.90;;;;;;5048094;28;20107;-78
2023/11/18 00:37:00;;;;;;;37.45;17.15;;;2.30;99.90;;;;;;5081738;28;20068;-77
2023/11/18 00:39:26;;;;;;;41.42;19.08;;;2.30;99.90;;;;;;5062074;28;20089;-78
2023/11/18 00:41:52;;;;;;;43.83;19.02;;;2.00;99.90;;;;;;5044304;28;20037;-78
2023/11/18 00:44:18;;;;;;;44.17;20.38;;;2.00;99.90;;;;;;5042479;28;20078;-77
2023/11/18 00:46:43;;;;;;;40.42;18.15;;;1.80;99.90;;;;;;5063730;28;20104;-78
2023/11/18 00:49:11;;;;;;;46.28;18.60;;;1.90;99.90;;;;;;5048602;28;20626;-78
2023/11/18 00:51:37;;;;;;;38.83;17.52;;;1.80;99.90;;;;;;5080790;28;20029;-78
2023/11/18 00:54:05;;;;;;;34.78;15.52;;;1.80;99.90;;;;;;5062615;28;20542;-77
2023/11/18 00:56:31;;;;;;;38.97;15.70;;;1.90;99.90;;;;;;5078855;28;20040;-77
2023/11/18 00:58:57;;;;;;;34.17;15.27;;;2.00;99.90;;;;;;5063866;28;20661;-77
2023/11/18 01:01:22;;;;;;;30.95;16.10;;;2.00;99.90;;;;;;5061544;28;20036;-77
2023/11/18 01:03:48;;;;;;;36.88;17.30;;;2.00;99.90;;;;;;5063496;28;20361;-78
2023/11/18 01:06:15;;;;;;;42.17;17.45;;;1.90;99.90;;;;;;5080628;28;20032;-77
2023/11/18 01:08:44;;;;;;;37.10;16.48;;;1.80;99.90;;;;;;5065352;28;20395;-79
2023/11/18 01:11:10;;;;;;;44.97;18.90;;;1.70;99.90;;;;;;5064713;28;20025;-79
2023/11/18 01:13:35;;;;;;;51.00;23.13;;;1.70;99.90;;;;;;5084735;28;20097;-78
2023/11/18 01:16:01;;;;;;;42.00;18.83;;;1.60;99.90;;;;;;5063182;28;20024;-78
2023/11/18 01:18:27;;;;;;;45.78;20.35;;;1.70;99.90;;;;;;5058884;28;20563;-78
2023/11/18 01:20:53;;;;;;;43.55;18.02;;;1.80;99.90;;;;;;5062043;28;20144;-78
2023/11/18 01:23:19;;;;;;;49.17;20.58;;;1.70;99.90;;;;;;5062840;28;20484;-78
2023/11/18 01:25:44;;;;;;;42.72;18.73;;;1.70;99.90;;;;;;5063766;28;20475;-79
2023/11/18 01:28:10;;;;;;;47.35;19.10;;;1.70;99.90;;;;;;5046594;28;20055;-78
2023/11/18 01:30:36;;;;;;;40.85;18.52;;;1.70;99.90;;;;;;5063517;28;21307;-78
2023/11/18 01:33:01;;;;;;;34.30;16.08;;;1.70;99.90;;;;;;5075259;28;20590;-79
2023/11/18 01:35:27;;;;;;;47.72;19.92;;;1.70;99.90;;;;;;5062708;28;20064;-79
2023/11/18 01:37:54;;;;;;;52.50;21.30;;;1.70;99.90;;;;;;5062144;28;20024;-79
2023/11/18 01:40:20;;;;;;;30.92;13.95;;;1.70;99.90;;;;;;5065723;28;20048;-78
2023/11/18 01:42:46;;;;;;;41.55;17.27;;;1.80;99.90;;;;;;5047931;28;20791;-79
2023/11/18 01:45:12;;;;;;;40.15;16.88;;;1.90;99.90;;;;;;5047369;28;20545;-78
2023/11/18 01:47:38;;;;;;;44.78;19.30;;;1.90;99.90;;;;;;5042598;28;20392;-78
2023/11/18 01:50:06;;;;;;;39.75;17.48;;;1.90;99.90;;;;;;5058886;28;20032;-78
2023/11/18 01:52:34;;;;;;;44.80;18.80;;;1.90;99.90;;;;;;5061861;28;20044;-78
2023/11/18 01:55:00;;;;;;;43.75;18.05;;;2.00;99.90;;;;;;5046158;28;20484;-78
2023/11/18 01:57:26;;;;;;;44.20;18.23;;;2.00;99.90;;;;;;5048666;28;20080;-79
2023/11/18 01:59:53;;;;;;;36.65;16.52;;;1.90;99.90;;;;;;5081027;28;20450;-78
2023/11/18 02:02:20;;;;;;;39.60;17.45;;;1.90;99.90;;;;;;5043322;28;20043;-79
2023/11/18 02:04:47;;;;;;;45.15;18.20;;;1.90;99.90;;;;;;5061538;28;20113;-78
2023/11/18 02:07:14;;;;;;;40.60;18.30;;;2.00;99.90;;;;;;5046927;28;20096;-77
2023/11/18 02:09:43;;;;;;;42.92;17.83;;;1.90;99.90;;;;;;5062784;28;20048;-78
2023/11/18 02:12:21;;;;;;;45.92;18.25;;;1.80;99.90;;;;;;5063515;28;20487;-78
2023/11/18 02:14:48;;;;;;;43.90;18.17;;;1.70;99.90;;;;;;5044023;28;20041;-78
2023/11/18 02:17:18;;;;;;;46.40;18.98;;;1.70;99.90;;;;;;5044141;28;20109;-78
2023/11/18 02:19:44;;;;;;;46.67;20.58;;;1.70;99.90;;;;;;5063885;28;20567;-77
2023/11/18 02:22:11;;;;;;;33.17;14.90;;;1.70;99.90;;;;;;5064175;28;20232;-80
2023/11/18 02:24:37;;;;;;;44.20;18.90;;;1.70;99.90;;;;;;5058812;28;20096;-79
2023/11/18 02:27:05;;;;;;;42.17;19.13;;;1.80;99.90;;;;;;5042452;28;20603;-79
2023/11/18 02:29:37;;;;;;;43.47;18.42;;;1.90;99.90;;;;;;5065444;28;20593;-78
2023/11/18 02:32:26;;;;;;;44.05;19.35;;;2.00;99.90;;;;;;5066345;28;20107;-79
2023/11/18 02:35:20;;;;;;;36.42;15.05;;;2.00;99.90;;;;;;5069078;28;20028;-78
2023/11/18 02:37:47;;;;;;;44.78;18.45;;;2.00;99.90;;;;;;5069081;28;20501;-77
2023/11/18 02:40:22;;;;;;;37.30;18.50;;;2.00;99.90;;;;;;5064322;28;20070;-79
2023/11/18 02:42:48;;;;;;;35.97;16.30;;;1.90;99.90;;;;;;5049179;28;20060;-78
2023/11/18 02:45:17;;;;;;;35.58;16.70;;;1.90;99.90;;;;;;5079898;28;20068;-78
2023/11/18 02:47:45;;;;;;;36.05;17.60;;;1.90;99.90;;;;;;5062609;28;20036;-78
2023/11/18 02:50:11;;;;;;;36.35;18.25;;;2.00;99.90;;;;;;5081678;28;20036;-79
2023/11/18 02:52:37;;;;;;;36.55;16.98;;;2.00;99.90;;;;;;5063343;28;20381;-79
2023/11/18 02:55:07;;;;;;;31.88;13.95;;;2.00;99.90;;;;;;5081797;28;20527;-81
2023/11/18 02:57:32;;;;;;;32.33;15.57;;;2.10;99.90;;;;;;5061457;28;20028;-78
2023/11/18 03:00:00;;;;;;;37.47;17.25;;;2.20;99.90;;;;;;5066715;28;20031;-79
2023/11/18 03:02:29;;;;;;;38.65;17.88;;;2.20;99.90;;;;;;5066090;28;20036;-79
2023/11/18 03:04:55;;;;;;;42.10;18.63;;;2.10;99.90;;;;;;5052627;28;20028;-79
2023/11/18 03:07:20;;;;;;;39.50;18.42;;;2.10;99.90;;;;;;5075739;28;20043;-78
2023/11/18 03:09:46;;;;;;;38.00;17.98;;;2.10;99.90;;;;;;5079147;28;20595;-79
2023/11/18 03:12:12;;;;;;;42.78;19.50;;;2.00;99.90;;;;;;5076493;28;20025;-79
2023/11/18 03:14:38;;;;;;;38.20;15.82;;;2.10;99.90;;;;;;5081153;28;20456;-78
2023/11/18 03:17:06;;;;;;;40.85;17.08;;;2.10;99.90;;;;;;5062228;28;20035;-78
2023/11/18 03:19:34;;;;;;;34.63;15.02;;;2.20;99.90;;;;;;5048772;28;20142;-78
2023/11/18 03:22:01;;;;;;;33.15;14.13;;;2.30;99.90;;;;;;5049278;28;20038;-78
2023/11/18 03:24:28;;;;;;;28.20;14.05;;;2.30;99.90;;;;;;5064655;28;20036;-78
2023/11/18 03:26:54;;;;;;;23.92;11.93;;;2.40;99.90;;;;;;5079404;28;20461;-79
2023/11/18 03:29:20;;;;;;;35.13;15.27;;;2.50;99.90;;;;;;5064950;28;20040;-78
2023/11/18 03:31:48;;;;;;;29.00;13.52;;;2.60;99.90;;;;;;5062981;28;20126;-78
2023/11/18 03:34:16;;;;;;;24.40;11.95;;;2.70;99.90;;;;;;5077660;28;20527;-78
2023/11/18 03:36:44;;;;;;;29.77;14.68;;;2.70;99.90;;;;;;5046502;28;20501;-79
2023/11/18 03:39:10;;;;;;;28.15;13.43;;;2.70;99.90;;;;;;5081267;28;20028;-78
2023/11/18 03:41:37;;;;;;;26.40;11.82;;;2.80;99.90;;;;;;5079299;28;20036;-78
2023/11/18 03:44:04;;;;;;;34.38;14.57;;;2.80;99.90;;;;;;5078292;28;20467;-79
2023/11/18 03:46:31;;;;;;;28.30;13.32;;;2.90;99.90;;;;;;5062136;28;20516;-78
2023/11/18 03:48:59;;;;;;;29.33;14.48;;;2.80;99.90;;;;;;5052539;28;20062;-78
2023/11/18 03:51:25;;;;;;;27.27;13.32;;;2.90;99.90;;;;;;5075111;28;20032;-78
2023/11/18 03:53:50;;;;;;;23.38;13.57;;;3.00;99.90;;;;;;5061270;28;20448;-78
2023/11/18 03:56:19;;;;;;;23.42;12.10;;;2.90;99.90;;;;;;5044351;28;20337;-78
2023/11/18 03:58:47;;;;;;;24.35;12.02;;;2.90;99.90;;;;;;5046868;28;20021;-78
2023/11/18 04:01:28;;;;;;;27.77;14.63;;;3.00;99.90;;;;;;5062808;28;20083;-78
2023/11/18 04:03:53;;;;;;;24.27;12.77;;;3.00;99.90;;;;;;5052621;28;20640;-78
2023/11/18 04:06:21;;;;;;;29.52;13.57;;;3.00;99.90;;;;;;5061856;28;20056;-77
2023/11/18 04:08:47;;;;;;;30.75;13.98;;;3.00;99.90;;;;;;5047573;28;20150;-78
2023/11/18 04:11:16;;;;;;;27.23;13.85;;;2.90;99.90;;;;;;5049114;28;20070;-79
2023/11/18 04:13:44;;;;;;;27.20;14.30;;;2.90;99.90;;;;;;5048862;28;20047;-78
2023/11/18 04:16:19;;;;;;;29.33;14.52;;;2.90;99.90;;;;;;5076725;28;20036;-78
2023/11/18 04:18:45;;;;;;;30.83;15.88;;;2.90;99.90;;;;;;5069397;28;20032;-78
2023/11/18 04:21:11;;;;;;;36.42;17.08;;;2.80;99.90;;;;;;5047958;28;20044;-78
2023/11/18 04:23:40;;;;;;;29.25;13.90;;;2.80;99.90;;;;;;5079628;28;20514;-78
2023/11/18 04:26:07;;;;;;;29.75;14.55;;;2.80;99.90;;;;;;5064425;28;20598;-78
2023/11/18 04:28:32;;;;;;;37.45;16.02;;;2.70;99.90;;;;;;5049689;28;20032;-78
2023/11/18 04:30:58;;;;;;;30.77;15.88;;;2.80;99.90;;;;;;5062734;28;20028;-77
2023/11/18 04:33:26;;;;;;;22.15;11.75;;;2.70;99.90;;;;;;5061061;28;20038;-78
2023/11/18 04:35:52;;;;;;;29.65;16.35;;;2.90;99.90;;;;;;5079764;28;20028;-77
2023/11/18 04:38:18;;;;;;;35.85;16.38;;;2.90;99.90;;;;;;5057974;28;20380;-78
2023/11/18 04:40:47;;;;;;;30.95;15.98;;;2.70;99.90;;;;;;5076369;28;20135;-78
2023/11/18 04:43:13;;;;;;;37.13;17.00;;;2.70;99.90;;;;;;5057145;28;20111;-78
2023/11/18 04:45:42;;;;;;;28.10;13.52;;;2.60;99.90;;;;;;5048721;28;20174;-78
2023/11/18 04:48:07;;;;;;;25.27;11.40;;;2.60;99.90;;;;;;5041722;28;20123;-78
2023/11/18 04:50:33;;;;;;;29.95;12.52;;;2.70;99.90;;;;;;5049565;28;20084;-78
2023/11/18 04:52:59;;;;;;;31.58;15.00;;;2.80;99.90;;;;;;5075648;28;20086;-78
2023/11/18 04:55:26;;;;;;;26.60;12.48;;;2.90;99.90;;;;;;5064301;28;20047;-78
2023/11/18 04:57:52;;;;;;;23.02;11.63;;;2.90;99.90;;;;;;5062656;28;20724;-78
2023/11/18 05:00:19;;;;;;;22.75;12.23;;;3.00;99.90;;;;;;5047320;28;20040;-79
2023/11/18 05:02:47;;;;;;;23.35;12.27;;;3.00;99.90;;;;;;5076034;28;20405;-78
2023/11/18 05:05:14;;;;;;;27.92;11.82;;;3.00;99.90;;;;;;5058936;28;20025;-78
2023/11/18 05:07:40;;;;;;;22.38;12.25;;;3.00;99.90;;;;;;5061549;28;20024;-78
2023/11/18 05:10:08;;;;;;;26.50;12.13;;;3.00;99.90;;;;;;5065517;28;20112;-77
2023/11/18 05:12:33;;;;;;;43.55;18.25;;;3.10;99.90;;;;;;5061619;28;20092;-78
2023/11/18 05:14:59;;;;;;;38.80;16.58;;;3.00;99.90;;;;;;5049337;28;20036;-78
2023/11/18 05:17:26;;;;;;;44.00;19.95;;;3.00;99.90;;;;;;5062474;28;20039;-78
2023/11/18 05:19:51;;;;;;;30.90;16.35;;;3.10;99.90;;;;;;5061490;28;20055;-78
2023/11/18 05:22:17;;;;;;;37.65;18.42;;;3.10;99.90;;;;;;5058512;28;20036;-78
2023/11/18 05:24:44;;;;;;;34.80;15.82;;;3.20;99.90;;;;;;5073650;28;20072;-78
2023/11/18 05:27:09;;;;;;;34.22;16.45;;;3.20;99.90;;;;;;5046242;28;20032;-78
2023/11/18 05:29:35;;;;;;;28.00;14.60;;;3.20;99.90;;;;;;5072709;28;20034;-78
2023/11/18 05:32:00;;;;;;;32.72;16.40;;;3.20;99.90;;;;;;5042545;28;20052;-78
2023/11/18 05:34:26;;;;;;;30.10;13.73;;;3.20;99.90;;;;;;5057468;28;20063;-77
2023/11/18 05:36:54;;;;;;;25.63;12.82;;;3.20;99.90;;;;;;5074260;28;20029;-78
2023/11/18 05:39:21;;;;;;;25.65;13.32;;;3.20;99.90;;;;;;5075278;28;20478;-78
2023/11/18 05:41:49;;;;;;;27.40;13.38;;;3.30;99.90;;;;;;5043209;28;20045;-78
2023/11/18 05:44:19;;;;;;;26.00;13.27;;;3.30;99.90;;;;;;5062314;28;20032;-78
2023/11/18 05:46:51;;;;;;;24.25;13.35;;;3.30;99.90;;;;;;5081513;28;20140;-78
2023/11/18 05:49:16;;;;;;;28.67;14.70;;;3.30;99.90;;;;;;5049753;28;20039;-79
2023/11/18 05:51:42;;;;;;;26.23;13.90;;;3.40;99.90;;;;;;5066920;28;20036;-78
2023/11/18 05:54:08;;;;;;;23.90;12.70;;;3.40;99.90;;;;;;5078394;28;20488;-78
2023/11/18 05:56:33;;;;;;;24.58;13.23;;;3.40;99.90;;;;;;5079966;28;20132;-78
2023/11/18 05:58:59;;;;;;;26.58;12.98;;;3.50;99.90;;;;;;5076022;28;20043;-79
2023/11/18 06:01:28;;;;;;;29.40;13.63;;;3.50;99.90;;;;;;5077469;28;20043;-78
2023/11/18 06:03:53;;;;;;;24.02;13.13;;;3.50;99.90;;;;;;5048877;28;20032;-78
2023/11/18 06:06:21;;;;;;;31.17;15.23;;;3.50;99.90;;;;;;5067749;28;20032;-78
2023/11/18 06:08:47;;;;;;;26.10;11.88;;;3.60;99.90;;;;;;5064841;28;20398;-78
2023/11/18 06:11:13;;;;;;;23.30;10.45;;;3.50;99.90;;;;;;5062657;28;20020;-78
2023/11/18 06:13:43;;;;;;;23.58;12.70;;;3.60;99.90;;;;;;5086020;28;20483;-79
2023/11/18 06:16:22;;;;;;;27.27;12.35;;;3.60;99.90;;;;;;5064515;28;20500;-78
2023/11/18 06:18:54;;;;;;;24.45;11.25;;;3.60;99.90;;;;;;5048196;28;20060;-77
2023/11/18 06:21:24;;;;;;;27.45;11.32;;;3.60;99.90;;;;;;5061923;28;20496;-77
2023/11/18 06:23:49;;;;;;;27.52;13.35;;;3.60;99.90;;;;;;5063122;28;20044;-78
2023/11/18 06:26:15;;;;;;;29.75;15.60;;;3.70;99.90;;;;;;5063597;28;20043;-77
2023/11/18 06:28:41;;;;;;;27.15;14.27;;;3.70;99.90;;;;;;5066296;28;20503;-77
2023/11/18 06:31:11;;;;;;;23.15;12.10;;;3.70;99.90;;;;;;5080025;28;20397;-78
2023/11/18 06:33:43;;;;;;;30.45;13.55;;;3.70;99.90;;;;;;5048790;28;20119;-79
2023/11/18 06:36:14;;;;;;;23.08;11.80;;;3.70;99.90;;;;;;5065098;28;20412;-79
2023/11/18 06:38:40;;;;;;;28.27;13.85;;;3.70;99.90;;;;;;5081893;28;20033;-78
2023/11/18 06:41:10;;;;;;;25.98;11.75;;;3.70;99.90;;;;;;5065617;28;20047;-78
2023/11/18 06:43:51;;;;;;;33.00;13.93;;;3.70;99.90;;;;;;5083660;28;20044;-78
2023/11/18 06:46:23;;;;;;;22.27;12.25;;;3.80;99.90;;;;;;5082446;28;20397;-78
2023/11/18 06:48:49;;;;;;;17.45;9.73;;;3.80;99.90;;;;;;5063778;28;20027;-78
2023/11/18 06:51:15;;;;;;;25.70;11.93;;;3.80;99.90;;;;;;5050383;28;20043;-78
2023/11/18 06:53:43;;;;;;;20.50;11.27;;;3.80;99.90;;;;;;5064330;28;20043;-77
2023/11/18 06:56:08;;;;;;;29.98;15.60;;;3.90;99.90;;;;;;5065285;28;20025;-77
2023/11/18 06:58:34;;;;;;;20.92;11.10;;;3.90;99.90;;;;;;5079304;28;20051;-78
2023/11/18 07:00:59;;;;;;;28.98;14.75;;;3.90;99.90;;;;;;5060149;28;20036;-79
2023/11/18 07:03:25;;;;;;;26.40;13.00;;;3.90;99.90;;;;;;5048723;28;20115;-78
2023/11/18 07:05:51;;;;;;;26.58;12.20;;;3.90;99.90;;;;;;5065053;28;20032;-77
2023/11/18 07:08:17;;;;;;;26.73;12.50;;;4.00;99.90;;;;;;5063625;28;20460;-78
2023/11/18 07:10:42;;;;;;;28.85;13.68;;;4.00;99.90;;;;;;5080079;28;20728;-79
2023/11/18 07:13:08;;;;;;;31.83;15.20;;;4.00;99.90;;;;;;5050051;28;20021;-78
2023/11/18 07:15:35;;;;;;;25.60;12.68;;;4.00;99.90;;;;;;5079089;28;20392;-78
2023/11/18 07:18:01;;;;;;;23.58;13.40;;;4.00;99.90;;;;;;5052372;28;20082;-78
2023/11/18 07:20:27;;;;;;;32.97;15.63;;;4.10;99.90;;;;;;5062643;28;20040;-79
2023/11/18 07:22:52;;;;;;;24.45;12.73;;;4.10;99.90;;;;;;5050271;28;20040;-79
2023/11/18 07:25:18;;;;;;;28.75;13.30;;;4.10;99.90;;;;;;5049734;28;20036;-78
2023/11/18 07:27:44;;;;;;;21.05;11.52;;;4.00;99.90;;;;;;5066398;28;20508;-78
2023/11/18 07:30:10;;;;;;;26.38;14.15;;;4.10;99.90;;;;;;5078497;28;20041;-78
2023/11/18 07:32:36;;;;;;;28.83;14.48;;;4.10;99.90;;;;;;5066701;28;20553;-78
2023/11/18 07:35:02;;;;;;;24.73;12.68;;;4.20;99.90;;;;;;5047282;28;20031;-78
2023/11/18 07:37:28;;;;;;;25.67;12.20;;;4.10;99.90;;;;;;5048610;28;20120;-78
2023/11/18 07:39:55;;;;;;;31.90;14.00;;;4.20;99.90;;;;;;5049615;28;20546;-78
2023/11/18 07:42:20;;;;;;;26.65;13.40;;;4.20;99.90;;;;;;5062375;28;20830;-78
2023/11/18 07:44:47;;;;;;;28.80;13.15;;;4.30;99.90;;;;;;5064092;28;20035;-77
2023/11/18 07:47:16;;;;;;;24.83;11.55;;;4.30;99.90;;;;;;5080378;28;20043;-78
2023/11/18 07:49:41;;;;;;;23.95;12.98;;;4.30;99.90;;;;;;5050455;28;20480;-79
2023/11/18 07:52:07;;;;;;;25.48;12.93;;;4.30;99.90;;;;;;5075305;28;20028;-78
2023/11/18 07:54:33;;;;;;;23.60;12.95;;;4.40;99.90;;;;;;5061994;28;20442;-78
2023/11/18 07:56:58;;;;;;;20.50;11.88;;;4.40;99.90;;;;;;5078557;28;20119;-78
2023/11/18 07:59:24;;;;;;;24.15;13.00;;;4.40;99.90;;;;;;5064188;28;20097;-78
2023/11/18 08:01:50;;;;;;;24.85;12.45;;;4.60;99.90;;;;;;5061917;28;20052;-79
2023/11/18 08:04:17;;;;;;;26.50;12.32;;;4.50;99.90;;;;;;5077113;28;20965;-79
2023/11/18 08:06:45;;;;;;;22.58;12.45;;;4.50;99.90;;;;;;5079574;28;20036;-78
2023/11/18 08:09:12;;;;;;;24.05;13.25;;;4.50;99.90;;;;;;5046995;28;20036;-78
2023/11/18 08:11:41;;;;;;;23.42;11.68;;;4.50;99.90;;;;;;5060808;28;20040;-79
2023/11/18 08:14:07;;;;;;;25.45;12.27;;;4.60;99.90;;;;;;5046349;28;20459;-78
2023/11/18 08:16:33;;;;;;;24.10;11.35;;;4.60;99.90;;;;;;5056506;28;20159;-78
2023/11/18 08:18:59;;;;;;;24.40;11.23;;;4.60;99.90;;;;;;5050303;28;20803;-79
2023/11/18 08:21:25;;;;;;;16.48;8.30;;;4.70;99.90;;;;;;5046432;28;20123;-78
2023/11/18 08:23:51;;;;;;;20.88;10.43;;;4.60;99.90;;;;;;5062050;28;20131;-78
2023/11/18 08:26:16;;;;;;;21.70;11.57;;;4.70;99.90;;;;;;5060775;28;20481;-77
2023/11/18 08:28:42;;;;;;;20.90;9.95;;;4.80;99.90;;;;;;5060854;28;20546;-79
2023/11/18 08:31:09;;;;;;;22.35;10.25;;;4.90;99.90;;;;;;5049125;28;20602;-78
2023/11/18 08:33:34;;;;;;;18.80;8.32;;;4.90;99.90;;;;;;5059145;28;20043;-78
2023/11/18 08:36:01;;;;;;;20.02;10.18;;;4.90;99.90;;;;;;5064607;28;20480;-78
2023/11/18 08:38:27;;;;;;;19.48;10.38;;;5.00;99.90;;;;;;5065005;28;20066;-78
2023/11/18 08:40:55;;;;;;;20.45;10.00;;;5.00;99.90;;;;;;5060847;28;20101;-77
2023/11/18 08:43:21;;;;;;;18.17;9.48;;;5.00;99.90;;;;;;5074371;28;20044;-78
2023/11/18 08:45:47;;;;;;;19.40;8.73;;;5.10;99.90;;;;;;5061922;28;20035;-78
2023/11/18 08:48:13;;;;;;;18.70;9.02;;;5.10;99.90;;;;;;5047664;28;20499;-78
2023/11/18 08:50:43;;;;;;;13.55;7.82;;;5.10;99.90;;;;;;5047604;28;20035;-78
2023/11/18 08:53:09;;;;;;;16.02;8.80;;;5.20;99.90;;;;;;5048803;28;20369;-77
2023/11/18 08:58:19;;;;;;;18.80;8.15;;;5.20;99.90;;;;;;5062031;28;20124;-78
2023/11/18 09:00:53;;;;;;;15.68;7.28;;;5.20;99.90;;;;;;5059400;28;20127;-77
2023/11/18 09:03:34;;;;;;;14.77;7.80;;;5.20;99.90;;;;;;5078613;28;20040;-78
2023/11/18 09:06:15;;;;;;;17.25;8.45;;;5.30;99.90;;;;;;5064010;28;20509;-79
2023/11/18 09:08:42;;;;;;;20.23;8.80;;;5.30;99.90;;;;;;5047013;28;20040;-77
2023/11/18 09:11:15;;;;;;;14.73;7.40;;;5.30;99.90;;;;;;5050118;28;20028;-78
2023/11/18 09:13:42;;;;;;;10.32;6.07;;;5.30;99.90;;;;;;5057035;27;20511;-78
2023/11/18 09:16:08;;;;;;;14.88;8.32;;;5.40;99.90;;;;;;5062038;28;20089;-78
2023/11/18 09:18:34;;;;;;;9.93;6.35;;;5.40;99.90;;;;;;5062279;28;20036;-77
2023/11/18 09:21:01;;;;;;;16.52;8.00;;;5.40;99.90;;;;;;5058464;28;20458;-78
2023/11/18 09:23:27;;;;;;;15.70;6.82;;;5.50;99.90;;;;;;5077407;28;20040;-78
2023/11/18 09:25:53;;;;;;;14.60;7.90;;;5.40;99.90;;;;;;5062922;28;20033;-79
2023/11/18 09:28:20;;;;;;;10.77;6.65;;;5.50;99.90;;;;;;5038424;28;20028;-77
2023/11/18 09:30:49;;;;;;;13.65;6.80;;;5.50;99.90;;;;;;5064207;28;20261;-77
2023/11/18 09:33:25;;;;;;;13.75;6.38;;;5.50;99.90;;;;;;5059454;28;20691;-77
2023/11/18 09:35:52;;;;;;;13.57;6.53;;;5.50;99.90;;;;;;5072052;28;20031;-78
2023/11/18 09:38:17;;;;;;;11.07;5.78;;;5.50;99.90;;;;;;5074590;28;20036;-77
2023/11/18 09:40:43;;;;;;;10.25;6.32;;;5.60;99.90;;;;;;5059834;28;20020;-78
2023/11/18 09:43:10;;;;;;;12.68;7.03;;;5.50;99.90;;;;;;5063080;28;20033;-78
2023/11/18 09:45:36;;;;;;;8.93;4.10;;;5.60;99.90;;;;;;5061044;28;20044;-77
2023/11/18 09:48:02;;;;;;;11.90;5.40;;;5.60;99.90;;;;;;5074584;28;20031;-77
2023/11/18 09:50:28;;;;;;;15.75;7.00;;;5.60;99.90;;;;;;5041407;28;20503;-77
2023/11/18 09:52:54;;;;;;;10.85;5.03;;;5.60;99.90;;;;;;5058915;28;20036;-77
2023/11/18 09:55:32;;;;;;;10.68;5.63;;;5.70;99.90;;;;;;5042505;28;20031;-77
2023/11/18 09:58:06;;;;;;;10.82;6.05;;;5.70;99.90;;;;;;5062158;28;20029;-77
2023/11/18 10:00:39;;;;;;;14.25;6.43;;;5.70;99.90;;;;;;5045809;28;20036;-77
2023/11/18 10:03:08;;;;;;;14.20;6.53;;;5.80;99.90;;;;;;5048059;28;20032;-78
2023/11/18 10:05:33;;;;;;;12.75;6.15;;;5.80;99.90;;;;;;5045548;28;20052;-78
2023/11/18 10:07:59;;;;;;;11.18;5.20;;;5.80;99.90;;;;;;5060812;28;20060;-77
2023/11/18 10:10:26;;;;;;;8.38;4.55;;;5.90;99.90;;;;;;5043253;28;20538;-76
2023/11/18 10:12:52;;;;;;;11.00;6.13;;;5.90;99.90;;;;;;5059466;28;20032;-79
2023/11/18 10:15:19;;;;;;;10.80;5.38;;;6.00;99.90;;;;;;5062301;28;20424;-75
2023/11/18 10:17:57;;;;;;;6.65;3.30;;;6.00;99.90;;;;;;5044715;28;20032;-77
2023/11/18 10:20:25;;;;;;;10.75;6.57;;;6.10;99.90;;;;;;5050510;28;20828;-77
2023/11/18 10:23:06;;;;;;;7.40;4.80;;;6.10;99.90;;;;;;5046976;28;20502;-78
2023/11/18 10:25:34;;;;;;;7.97;4.75;;;6.10;99.90;;;;;;5057865;28;20040;-78
2023/11/18 10:28:02;;;;;;;11.55;5.78;;;6.20;99.90;;;;;;5046056;28;20040;-78
2023/11/18 10:30:27;;;;;;;12.65;5.93;;;6.20;99.90;;;;;;5044620;28;20492;-78
2023/11/18 10:33:05;;;;;;;11.35;5.43;;;6.20;99.90;;;;;;5060426;28;20035;-78
2023/11/18 10:35:34;;;;;;;10.63;5.53;;;6.30;99.90;;;;;;5046831;28;20036;-77
2023/11/18 10:38:04;;;;;;;12.40;5.90;;;6.30;99.90;;;;;;5059268;28;20515;-79
2023/11/18 10:40:34;;;;;;;12.77;6.20;;;6.40;99.90;;;;;;5045061;28;20024;-78
2023/11/18 10:43:01;;;;;;;7.32;3.60;;;6.40;99.90;;;;;;5046010;28;20502;-77
2023/11/18 10:45:27;;;;;;;11.00;6.63;;;6.40;99.90;;;;;;5060382;28;20132;-77
2023/11/18 10:47:55;;;;;;;11.25;5.82;;;6.50;99.90;;;;;;5059517;28;20153;-78
2023/11/18 10:50:22;;;;;;;9.10;5.50;;;6.50;99.90;;;;;;5049932;28;20028;-77
2023/11/18 10:52:48;;;;;;;13.45;6.28;;;6.50;99.90;;;;;;5052742;28;20458;-78
2023/11/18 10:55:19;;;;;;;10.25;6.70;;;6.60;99.90;;;;;;5065648;28;20739;-78
2023/11/18 10:57:44;;;;;;;9.50;5.03;;;6.60;99.90;;;;;;5048984;28;20504;-78
2023/11/18 11:00:14;;;;;;;8.70;5.55;;;6.60;99.90;;;;;;5065297;28;20059;-78
2023/11/18 11:02:41;;;;;;;10.82;5.78;;;6.70;99.90;;;;;;5066884;28;20483;-77
2023/11/18 11:05:15;;;;;;;11.10;6.10;;;6.80;99.90;;;;;;5066046;28;20043;-77
2023/11/18 11:07:44;;;;;;;10.50;5.88;;;6.80;99.90;;;;;;5054050;28;20408;-77
2023/11/18 11:10:10;;;;;;;10.80;4.97;;;6.80;99.90;;;;;;5051542;28;20043;-78
2023/11/18 11:13:05;;;;;;;12.23;5.20;;;6.80;99.90;;;;;;5062320;28;20036;-77
2023/11/18 11:15:32;;;;;;;10.18;4.40;;;6.80;99.90;;;;;;5076609;28;20115;-77
2023/11/18 11:18:09;;;;;;;8.32;5.07;;;6.90;99.90;;;;;;5079927;28;20496;-77
2023/11/18 11:20:41;;;;;;;9.05;4.47;;;6.90;99.90;;;;;;5051267;28;20432;-78
2023/11/18 11:23:45;;;;;;;8.25;3.95;;;6.90;99.90;;;;;;5051783;28;20044;-77
2023/11/18 11:26:22;;;;;;;6.60;3.88;;;6.90;99.90;;;;;;5084464;28;20042;-78
2023/11/18 11:29:34;;;;;;;10.15;5.28;;;6.90;99.90;;;;;;5050305;28;20056;-77
2023/11/18 11:32:12;;;;;;;9.45;4.82;;;6.90;99.90;;;;;;5037116;28;21448;-77
2023/11/18 11:34:42;;;;;;;10.95;3.63;;;6.90;99.90;;;;;;5082312;28;20043;-77
2023/11/18 11:37:09;;;;;;;9.35;5.03;;;6.90;99.90;;;;;;5053140;28;20043;-77
2023/11/18 11:39:36;;;;;;;9.13;5.30;;;7.00;99.90;;;;;;5050297;28;20061;-77
2023/11/18 11:42:02;;;;;;;11.85;6.28;;;7.00;99.90;;;;;;5063706;28;20029;-77
2023/11/18 11:44:30;;;;;;;7.90;4.03;;;7.00;99.90;;;;;;5049995;28;20043;-77
2023/11/18 11:46:59;;;;;;;11.80;4.47;;;7.00;99.90;;;;;;5063152;28;20046;-77
2023/11/18 11:49:30;;;;;;;8.00;4.35;;;7.00;99.90;;;;;;5078394;28;20039;-78
2023/11/18 11:52:10;;;;;;;5.07;3.25;;;7.00;99.90;;;;;;5049698;28;20037;-77
2023/11/18 11:54:40;;;;;;;7.07;5.07;;;7.00;99.90;;;;;;5080433;28;20066;-77
2023/11/18 11:57:06;;;;;;;8.52;5.07;;;7.00;99.90;;;;;;5067427;28;20040;-78
2023/11/18 11:59:46;;;;;;;10.43;4.95;;;7.00;99.90;;;;;;5077527;28;20539;-76
2023/11/18 12:02:17;;;;;;;10.88;5.55;;;7.00;99.90;;;;;;5082854;28;20445;-78
2023/11/18 12:04:47;;;;;;;8.82;4.65;;;7.00;99.90;;;;;;5062510;28;20082;-77
2023/11/18 12:07:15;;;;;;;11.85;6.10;;;7.00;99.90;;;;;;5061894;28;20028;-76
2023/11/18 12:09:43;;;;;;;12.82;4.90;;;7.00;99.90;;;;;;5062423;28;20067;-76
2023/11/18 12:12:21;;;;;;;12.48;5.22;;;7.10;99.90;;;;;;5063183;28;20036;-76
2023/11/18 12:15:17;;;;;;;8.88;4.50;;;7.10;99.90;;;;;;5064754;28;20644;-75
2023/11/18 12:18:12;;;;;;;13.73;5.72;;;7.10;99.90;;;;;;5069349;28;20032;-75
2023/11/18 12:20:47;;;;;;;7.20;4.78;;;7.10;99.90;;;;;;5062783;28;20060;-76
2023/11/18 12:23:18;;;;;;;10.85;5.28;;;7.10;99.90;;;;;;5049519;28;20779;-76
2023/11/18 12:25:45;;;;;;;7.68;4.07;;;7.10;99.90;;;;;;5047745;28;20028;-76
2023/11/18 12:28:11;;;;;;;8.43;4.75;;;7.10;99.90;;;;;;5078814;28;20028;-76
2023/11/18 12:30:43;;;;;;;9.40;4.25;;;7.10;99.90;;;;;;5061109;28;20051;-76
2023/11/18 12:33:10;;;;;;;8.38;4.93;;;7.10;99.90;;;;;;5077874;28;20544;-78
2023/11/18 12:35:55;;;;;;;9.30;5.13;;;7.10;99.90;;;;;;5043306;28;20806;-76
2023/11/18 12:38:35;;;;;;;8.10;4.18;;;7.10;99.90;;;;;;5065983;28;20121;-76
2023/11/18 12:41:07;;;;;;;5.38;3.45;;;7.10;99.90;;;;;;5078441;28;20664;-76
2023/11/18 12:43:49;;;;;;;10.02;4.97;;;7.00;99.90;;;;;;5063515;28;20036;-75
2023/11/18 12:46:37;;;;;;;7.45;5.00;;;7.00;99.90;;;;;;5081038;28;20039;-75
2023/11/18 12:49:02;;;;;;;10.00;5.05;;;7.10;99.90;;;;;;5064457;28;20043;-76